New Franklin, Pennsylvania
Current Conditions -  °F | °C
As of 6:53 AM on Wednesday 28 Jan 2015 (Local Time) from KHGR Reporting Station
Clear Clear  
Wind Chill:   Ceiling: Unl
Heat Index: 16°   Visibility: 10mi
Dew Point:   Wind: 5mph
Humidity: 57%   Direction: 300°WNW
Pressure: 30.17"   Gusts: NA
Location:  39.9438°N, 77.6827°W
Report Text: KHGR 281153Z 30004KT 10SM CLR M09/M16 A3017 RMK AO2 SLP237 T10891161 11061 21094 53029
Loading
Personal Weather Stations






























Interactive Weather Map New forecast layout! Learn more

10-Day Weather Forecast

Advertisements
Track Severe Weather on mobile